createdAt,value
2019-03-26T00:00:56.511Z,47.38
2019-03-26T00:03:23.746Z,35.03
2019-03-26T00:05:51.049Z,41.88
2019-03-26T00:08:18.296Z,44.45
2019-03-26T00:10:45.505Z,49.58
2019-03-26T00:13:12.824Z,44.70
2019-03-26T00:15:40.064Z,37.23
2019-03-26T00:18:07.374Z,46.33
2019-03-26T00:20:34.702Z,33.70
2019-03-26T00:23:02.040Z,38.53
2019-03-26T00:25:29.414Z,32.05
2019-03-26T00:27:56.721Z,36.35
2019-03-26T00:30:24.095Z,36.68
2019-03-26T00:32:51.421Z,35.30
2019-03-26T00:35:18.751Z,38.75
2019-03-26T00:37:46.104Z,35.55
2019-03-26T00:40:13.535Z,37.15
2019-03-26T00:42:41.710Z,36.25
2019-03-26T00:45:09.046Z,34.00
2019-03-26T00:47:36.250Z,41.92
2019-03-26T00:50:04.321Z,34.85
2019-03-26T00:52:31.626Z,36.00
2019-03-26T00:54:58.969Z,44.08
2019-03-26T00:57:26.091Z,38.58
2019-03-26T00:59:53.504Z,46.55
2019-03-26T01:02:20.926Z,50.20
2019-03-26T01:04:48.202Z,50.70
2019-03-26T01:07:15.426Z,56.08
2019-03-26T01:09:42.754Z,55.28
2019-03-26T01:12:09.961Z,49.13
2019-03-26T01:14:37.291Z,55.12
2019-03-26T01:17:04.520Z,50.35
2019-03-26T01:19:31.848Z,45.43
2019-03-26T01:21:59.163Z,43.45
2019-03-26T01:24:26.513Z,42.43
2019-03-26T01:26:53.846Z,45.98
2019-03-26T01:29:21.179Z,34.75
2019-03-26T01:31:48.412Z,44.42
2019-03-26T01:34:15.755Z,28.27
2019-03-26T01:36:43.053Z,35.85
2019-03-26T01:39:10.400Z,32.23
2019-03-26T01:41:37.710Z,30.02
2019-03-26T01:44:05.036Z,35.58
2019-03-26T01:46:32.340Z,25.80
2019-03-26T01:48:59.656Z,38.78
2019-03-26T01:51:26.953Z,27.13
2019-03-26T01:53:54.203Z,28.25
2019-03-26T01:56:21.438Z,27.13
2019-03-26T01:58:48.751Z,39.63
2019-03-26T02:01:16.106Z,35.58
2019-03-26T02:03:43.332Z,33.90
2019-03-26T02:06:10.721Z,24.80
2019-03-26T02:08:38.258Z,25.15
2019-03-26T02:11:05.580Z,30.17
2019-03-26T02:13:32.923Z,27.67
2019-03-26T02:16:00.267Z,35.52
2019-03-26T02:18:27.580Z,41.88
2019-03-26T02:20:54.927Z,26.93
2019-03-26T02:23:22.292Z,28.35
2019-03-26T02:25:49.548Z,25.97
2019-03-26T02:28:16.873Z,30.43
2019-03-26T02:30:44.200Z,31.95
2019-03-26T02:33:11.527Z,24.40
2019-03-26T02:35:38.869Z,27.95
2019-03-26T02:38:06.614Z,34.35
2019-03-26T02:40:33.949Z,32.63
2019-03-26T02:43:01.178Z,28.55
2019-03-26T02:45:28.515Z,24.35
2019-03-26T02:47:55.844Z,33.42
2019-03-26T02:50:23.207Z,20.62
2019-03-26T02:52:51.774Z,19.57
2019-03-26T02:55:19.088Z,27.37
2019-03-26T02:57:46.456Z,29.20
2019-03-26T03:00:13.999Z,26.95
2019-03-26T03:02:41.361Z,29.23
2019-03-26T03:05:08.787Z,20.37
2019-03-26T03:07:36.090Z,26.37
2019-03-26T03:10:04.016Z,28.30
2019-03-26T03:12:33.230Z,20.82
2019-03-26T03:15:00.674Z,32.85
2019-03-26T03:17:28.009Z,22.32
2019-03-26T03:19:55.361Z,18.15
2019-03-26T03:22:23.197Z,20.27
2019-03-26T03:24:50.457Z,20.00
2019-03-26T03:27:17.815Z,21.62
2019-03-26T03:29:45.145Z,14.68
2019-03-26T03:32:12.469Z,22.40
2019-03-26T03:34:39.912Z,12.40
2019-03-26T03:37:07.236Z,14.58
2019-03-26T03:39:34.488Z,19.00
2019-03-26T03:42:01.811Z,9.35
2019-03-26T03:44:29.180Z,8.40
2019-03-26T03:46:57.221Z,18.45
2019-03-26T03:49:26.942Z,15.23
2019-03-26T03:51:56.887Z,12.40
2019-03-26T03:54:24.431Z,16.15
2019-03-26T03:56:53.580Z,11.48
2019-03-26T03:59:21.715Z,17.82
2019-03-26T04:01:48.949Z,14.73
2019-03-26T04:04:16.199Z,16.62
2019-03-26T04:06:43.532Z,10.72
2019-03-26T04:09:10.743Z,13.05
2019-03-26T04:11:38.123Z,13.58
2019-03-26T04:14:05.448Z,11.45
2019-03-26T04:16:32.791Z,14.63
2019-03-26T04:18:59.998Z,19.07
2019-03-26T04:21:27.335Z,11.00
2019-03-26T04:23:54.551Z,16.17
2019-03-26T04:26:21.793Z,19.10
2019-03-26T04:28:48.971Z,11.30
2019-03-26T04:31:16.193Z,16.97
2019-03-26T04:33:43.529Z,21.82
2019-03-26T04:36:24.707Z,14.87
2019-03-26T04:38:39.871Z,16.80
2019-03-26T04:41:07.202Z,13.68
2019-03-26T04:43:34.521Z,20.75
2019-03-26T04:46:01.867Z,19.42
2019-03-26T04:48:29.081Z,14.83
2019-03-26T04:50:56.370Z,19.80
2019-03-26T04:53:23.588Z,16.48
2019-03-26T04:55:50.980Z,17.98
2019-03-26T04:58:18.205Z,16.70
2019-03-26T05:00:45.455Z,14.83
2019-03-26T05:03:12.776Z,24.70
2019-03-26T05:05:40.108Z,23.90
2019-03-26T05:08:07.434Z,17.67
2019-03-26T05:10:34.652Z,19.15
2019-03-26T05:13:01.998Z,24.27
2019-03-26T05:15:29.311Z,21.50
2019-03-26T05:17:56.989Z,11.53
2019-03-26T05:20:24.360Z,24.00
2019-03-26T05:22:51.605Z,20.92
2019-03-26T05:25:19.046Z,20.20
2019-03-26T05:27:46.283Z,28.10
2019-03-26T05:30:15.403Z,26.50
2019-03-26T05:32:42.735Z,21.02
2019-03-26T05:35:09.952Z,31.10
2019-03-26T05:37:37.371Z,21.48
2019-03-26T05:40:06.732Z,23.55
2019-03-26T05:42:33.964Z,17.62
2019-03-26T05:45:01.292Z,29.72
2019-03-26T05:47:28.509Z,31.87
2019-03-26T05:49:55.723Z,24.92
2019-03-26T05:52:23.057Z,17.55
2019-03-26T05:54:50.272Z,21.60
2019-03-26T05:57:17.616Z,18.65
2019-03-26T05:59:44.836Z,27.00
2019-03-26T06:02:15.202Z,23.05
2019-03-26T06:04:41.173Z,27.48
2019-03-26T06:07:08.508Z,27.20
2019-03-26T06:09:35.811Z,15.13
2019-03-26T06:12:03.164Z,21.97
2019-03-26T06:14:30.483Z,24.25
2019-03-26T06:16:57.699Z,30.40
2019-03-26T06:19:25.038Z,25.80
2019-03-26T06:21:52.267Z,20.17
2019-03-26T06:24:19.661Z,25.08
2019-03-26T06:26:46.900Z,26.68
2019-03-26T06:29:14.243Z,19.73
2019-03-26T06:31:41.472Z,20.23
2019-03-26T06:34:10.510Z,31.10
2019-03-26T06:36:37.934Z,27.10
2019-03-26T06:39:07.026Z,29.37
2019-03-26T06:41:34.323Z,20.97
2019-03-26T06:44:01.646Z,15.48
2019-03-26T06:46:28.946Z,23.38
2019-03-26T06:48:56.187Z,17.23
2019-03-26T06:51:23.501Z,15.95
2019-03-26T06:53:50.899Z,34.40
2019-03-26T06:56:18.106Z,23.45
2019-03-26T06:58:45.341Z,24.87
2019-03-26T07:01:12.675Z,23.47
2019-03-26T07:03:40.015Z,20.48
2019-03-26T07:06:07.331Z,15.40
2019-03-26T07:08:35.071Z,16.35
2019-03-26T07:11:02.380Z,19.45
2019-03-26T07:13:29.618Z,19.90
2019-03-26T07:15:56.847Z,25.85
2019-03-26T07:18:24.166Z,24.82
2019-03-26T07:20:51.524Z,29.55
2019-03-26T07:23:18.868Z,25.17
2019-03-26T07:25:46.186Z,21.52
2019-03-26T07:28:13.515Z,19.07
2019-03-26T07:30:43.612Z,14.43
2019-03-26T07:33:11.004Z,23.67
2019-03-26T07:35:38.361Z,26.15
2019-03-26T07:38:05.688Z,15.18
2019-03-26T07:40:33.026Z,22.30
2019-03-26T07:43:00.343Z,15.68
2019-03-26T07:45:27.672Z,20.92
2019-03-26T07:47:55.044Z,12.65
2019-03-26T07:50:22.372Z,18.67
2019-03-26T07:52:49.717Z,18.35
2019-03-26T07:55:17.045Z,22.20
2019-03-26T07:57:44.259Z,19.98
2019-03-26T08:00:12.033Z,21.33
2019-03-26T08:02:39.418Z,12.95
2019-03-26T08:05:07.813Z,14.13
2019-03-26T08:07:35.127Z,11.50
2019-03-26T08:10:02.479Z,19.90
2019-03-26T08:12:32.615Z,17.82
2019-03-26T08:14:58.874Z,17.27
2019-03-26T08:17:26.190Z,21.05
2019-03-26T08:19:53.524Z,15.18
2019-03-26T08:22:20.740Z,19.10
2019-03-26T08:24:48.057Z,19.37
2019-03-26T08:27:15.395Z,21.23
2019-03-26T08:29:42.616Z,23.77
2019-03-26T08:32:10.038Z,18.40
2019-03-26T08:34:37.361Z,21.50
2019-03-26T08:37:04.697Z,15.58
2019-03-26T08:39:32.000Z,10.35
2019-03-26T08:41:59.331Z,26.27
2019-03-26T08:44:26.529Z,18.17
2019-03-26T08:46:53.755Z,16.87
2019-03-26T08:49:21.127Z,11.93
2019-03-26T08:51:48.343Z,19.48
2019-03-26T08:54:15.588Z,13.55
2019-03-26T08:56:42.920Z,18.10
2019-03-26T08:59:10.264Z,11.90
2019-03-26T09:01:37.485Z,12.78
2019-03-26T09:04:04.693Z,14.03
2019-03-26T09:06:32.020Z,13.45
2019-03-26T09:08:59.326Z,14.50
2019-03-26T09:11:26.647Z,12.78
2019-03-26T09:13:53.851Z,19.02
2019-03-26T09:16:21.272Z,12.13
2019-03-26T09:18:48.464Z,18.00
2019-03-26T09:21:15.815Z,10.05
2019-03-26T09:23:43.121Z,13.10
2019-03-26T09:26:10.346Z,12.25
2019-03-26T09:28:37.575Z,12.60
2019-03-26T09:31:04.934Z,14.53
2019-03-26T09:33:32.276Z,15.90
2019-03-26T09:35:59.687Z,14.33
2019-03-26T09:38:38.414Z,14.65
2019-03-26T09:40:56.166Z,17.42
2019-03-26T09:43:23.379Z,22.42
2019-03-26T09:45:50.751Z,11.83
2019-03-26T09:48:18.109Z,19.12
2019-03-26T09:50:45.508Z,9.38
2019-03-26T09:53:13.007Z,17.27
2019-03-26T09:55:40.383Z,19.32
2019-03-26T09:58:07.712Z,9.33
2019-03-26T10:00:35.122Z,14.00
2019-03-26T10:03:02.493Z,16.15
2019-03-26T10:05:29.793Z,11.68
2019-03-26T10:07:57.112Z,11.50
2019-03-26T10:10:24.423Z,14.85
2019-03-26T10:12:51.757Z,12.58
2019-03-26T10:15:19.055Z,14.47
2019-03-26T10:17:46.396Z,14.23
2019-03-26T10:20:13.982Z,13.35
2019-03-26T10:22:41.328Z,10.90
2019-03-26T10:25:10.907Z,14.05
2019-03-26T10:27:38.287Z,12.78
2019-03-26T10:30:06.750Z,16.20
2019-03-26T10:32:34.505Z,11.30
2019-03-26T10:35:01.816Z,11.70
2019-03-26T10:37:29.143Z,8.85
2019-03-26T10:39:56.444Z,15.48
2019-03-26T10:42:23.779Z,13.90
2019-03-26T10:44:51.025Z,13.30
2019-03-26T10:47:18.358Z,10.70
2019-03-26T10:49:45.573Z,12.75
2019-03-26T10:52:12.904Z,6.37
2019-03-26T10:54:40.127Z,14.47
2019-03-26T10:57:07.447Z,11.05
2019-03-26T10:59:34.745Z,16.50
2019-03-26T11:02:02.119Z,17.50
2019-03-26T11:04:29.389Z,12.53
2019-03-26T11:06:56.847Z,10.25
2019-03-26T11:09:27.074Z,10.63
2019-03-26T11:11:53.274Z,15.20
2019-03-26T11:14:20.582Z,13.28
2019-03-26T11:16:47.927Z,14.18
2019-03-26T11:19:15.117Z,13.80
2019-03-26T11:21:42.479Z,14.58
2019-03-26T11:24:09.790Z,14.38
2019-03-26T11:26:37.087Z,16.73
2019-03-26T11:29:04.414Z,13.80
2019-03-26T11:31:31.725Z,16.15
2019-03-26T11:33:59.096Z,14.50
2019-03-26T11:36:26.404Z,15.78
2019-03-26T11:38:53.734Z,13.80
2019-03-26T11:41:21.139Z,8.60
2019-03-26T11:43:48.466Z,14.73
2019-03-26T11:46:15.819Z,9.50
2019-03-26T11:48:43.143Z,20.43
2019-03-26T11:51:10.449Z,9.73
2019-03-26T11:53:37.786Z,13.40
2019-03-26T11:56:05.086Z,15.78
2019-03-26T11:58:32.416Z,10.35
2019-03-26T12:00:59.840Z,11.95
2019-03-26T12:03:27.179Z,7.83
2019-03-26T12:05:54.485Z,16.32
2019-03-26T12:08:21.810Z,8.95
2019-03-26T12:10:49.119Z,11.68
2019-03-26T12:13:16.357Z,12.00
2019-03-26T12:15:43.656Z,9.48
2019-03-26T12:18:10.996Z,8.45
2019-03-26T12:20:38.321Z,14.83
2019-03-26T12:23:05.647Z,11.38
2019-03-26T12:25:33.089Z,12.60
2019-03-26T12:28:00.478Z,9.40
2019-03-26T12:30:32.359Z,8.40
2019-03-26T12:32:59.907Z,10.72
2019-03-26T12:35:28.102Z,6.45
2019-03-26T12:37:55.457Z,12.15
2019-03-26T12:40:22.796Z,13.65
2019-03-26T12:42:50.006Z,19.07
2019-03-26T12:45:17.339Z,9.63
2019-03-26T12:47:44.649Z,17.48
2019-03-26T12:50:12.111Z,10.93
2019-03-26T12:52:39.428Z,12.78
2019-03-26T12:55:06.870Z,8.38
2019-03-26T12:57:34.228Z,11.68
2019-03-26T13:00:01.557Z,13.35
2019-03-26T13:02:28.854Z,13.40
2019-03-26T13:04:56.251Z,12.00
2019-03-26T13:07:23.549Z,18.07
2019-03-26T13:09:50.879Z,12.78
2019-03-26T13:12:18.083Z,14.98
2019-03-26T13:14:45.720Z,7.22
2019-03-26T13:17:13.191Z,10.75
2019-03-26T13:19:40.441Z,11.88
2019-03-26T13:22:07.753Z,20.23
2019-03-26T13:24:35.076Z,35.35
2019-03-26T13:27:22.009Z,14.30
2019-03-26T13:29:49.218Z,16.95
2019-03-26T13:32:16.415Z,14.65
2019-03-26T13:34:43.678Z,31.55
2019-03-26T13:37:10.981Z,32.98
2019-03-26T13:39:38.503Z,18.10
2019-03-26T13:42:05.809Z,11.33
2019-03-26T13:44:33.193Z,15.08
2019-03-26T13:47:00.486Z,10.13
2019-03-26T13:49:27.698Z,14.80
2019-03-26T13:51:55.001Z,10.80
2019-03-26T13:54:22.339Z,19.52
2019-03-26T13:56:49.548Z,25.15
2019-03-26T13:59:16.851Z,22.13
2019-03-26T14:01:44.215Z,14.38
2019-03-26T14:04:11.545Z,19.27
2019-03-26T14:12:06.647Z,11.50
2019-03-26T14:14:33.976Z,15.43
2019-03-26T14:17:01.210Z,13.20
2019-03-26T14:19:28.534Z,17.20
2019-03-26T14:21:55.845Z,9.05
2019-03-26T14:24:23.170Z,13.60
2019-03-26T14:26:51.047Z,9.90
2019-03-26T14:29:19.621Z,11.15
2019-03-26T14:31:52.980Z,9.35
2019-03-26T14:34:20.458Z,7.28
2019-03-26T14:36:47.912Z,6.37
2019-03-26T14:39:15.730Z,13.05
2019-03-26T14:41:43.077Z,10.75
2019-03-26T14:44:10.395Z,7.55
2019-03-26T14:46:37.799Z,7.45
2019-03-26T14:49:05.108Z,4.78
2019-03-26T14:51:34.399Z,7.55
2019-03-26T14:54:02.385Z,9.33
2019-03-26T14:56:30.587Z,8.80
2019-03-26T14:58:57.822Z,6.08
2019-03-26T15:01:25.164Z,7.20
2019-03-26T15:03:52.481Z,6.75
2019-03-26T15:06:19.905Z,6.65
2019-03-26T15:08:47.216Z,3.87
2019-03-26T15:11:14.495Z,4.95
2019-03-26T15:13:41.739Z,7.83
2019-03-26T15:16:09.083Z,5.08
2019-03-26T15:18:36.308Z,5.45
2019-03-26T15:21:03.771Z,4.87
2019-03-26T15:23:31.085Z,5.60
2019-03-26T15:25:58.423Z,6.78
2019-03-26T15:28:25.770Z,5.05
2019-03-26T15:30:53.438Z,5.53
2019-03-26T15:33:20.772Z,7.00
2019-03-26T15:35:48.098Z,4.10
2019-03-26T15:38:15.359Z,8.18
2019-03-26T15:40:45.884Z,8.63
2019-03-26T15:43:13.259Z,6.62
2019-03-26T15:45:40.581Z,6.25
2019-03-26T15:48:07.968Z,7.03
2019-03-26T15:50:40.158Z,4.05
2019-03-26T15:53:07.824Z,5.47
2019-03-26T15:55:35.265Z,6.87
2019-03-26T15:58:02.587Z,5.70
2019-03-26T16:00:31.200Z,5.08
2019-03-26T16:02:58.843Z,11.38
2019-03-26T16:05:28.859Z,6.30
2019-03-26T16:08:27.628Z,10.25
2019-03-26T16:10:59.144Z,7.95
2019-03-26T16:13:26.494Z,6.80
2019-03-26T16:15:56.469Z,7.12
2019-03-26T16:18:26.637Z,12.07
2019-03-26T16:20:59.057Z,13.88
2019-03-26T16:23:28.141Z,8.38
2019-03-26T16:25:55.510Z,11.05
2019-03-26T16:28:31.954Z,10.78
2019-03-26T16:30:59.652Z,8.53
2019-03-26T16:33:31.500Z,10.78
2019-03-26T16:36:36.093Z,5.58
2019-03-26T16:39:12.810Z,9.73
2019-03-26T16:41:51.711Z,14.20
2019-03-26T16:44:28.337Z,14.28
2019-03-26T16:46:55.676Z,10.15
2019-03-26T16:49:23.534Z,10.60
2019-03-26T16:52:01.838Z,14.63
2019-03-26T16:54:31.174Z,12.73
2019-03-26T16:57:07.820Z,12.68
2019-03-26T16:59:40.916Z,10.30
2019-03-26T17:02:10.664Z,6.70
2019-03-26T17:04:38.002Z,9.23
2019-03-26T17:07:05.372Z,9.03
2019-03-26T17:09:44.559Z,11.65
2019-03-26T17:12:13.649Z,11.28
2019-03-26T17:14:43.879Z,10.20
2019-03-26T17:17:11.189Z,14.07
2019-03-26T17:19:38.536Z,13.08
2019-03-26T17:22:06.973Z,10.15
2019-03-26T17:24:34.407Z,10.98
2019-03-26T17:27:01.898Z,13.40
2019-03-26T17:29:29.259Z,11.97
2019-03-26T17:31:56.608Z,13.32
2019-03-26T17:34:26.835Z,14.43
2019-03-26T17:36:54.178Z,20.15
2019-03-26T17:42:17.083Z,15.98
2019-03-26T17:44:37.499Z,16.10
2019-03-26T17:47:04.729Z,15.48
2019-03-26T17:49:32.058Z,18.55
2019-03-26T17:51:59.389Z,18.25
2019-03-26T17:54:26.722Z,16.95
2019-03-26T17:56:54.047Z,17.92
2019-03-26T17:59:21.757Z,24.07
2019-03-26T18:01:48.975Z,22.35
2019-03-26T18:04:16.320Z,17.25
2019-03-26T18:06:43.636Z,13.90
2019-03-26T18:09:10.949Z,20.35
2019-03-26T18:11:38.279Z,12.23
2019-03-26T18:14:05.507Z,13.83
2019-03-26T18:16:33.187Z,11.15
2019-03-26T18:19:00.395Z,19.60
2019-03-26T18:21:27.731Z,19.00
2019-03-26T18:23:55.289Z,18.17
2019-03-26T18:26:22.513Z,18.57
2019-03-26T18:28:49.811Z,18.67
2019-03-26T18:31:17.137Z,19.90
2019-03-26T18:33:44.694Z,15.30
2019-03-26T18:36:11.919Z,13.93
2019-03-26T18:38:39.126Z,16.85
2019-03-26T18:41:06.421Z,18.82
2019-03-26T18:43:33.663Z,12.88
2019-03-26T18:46:00.961Z,18.92
2019-03-26T18:48:28.184Z,18.23
2019-03-26T18:50:55.526Z,12.45
2019-03-26T18:53:22.788Z,14.60
2019-03-26T18:55:50.004Z,17.77
2019-03-26T18:58:17.337Z,16.07
2019-03-26T19:00:44.641Z,14.95
2019-03-26T19:03:14.282Z,21.90
2019-03-26T19:05:41.490Z,15.88
2019-03-26T19:08:08.917Z,20.08
2019-03-26T19:10:36.259Z,23.25
2019-03-26T19:13:03.916Z,28.02
2019-03-26T19:15:31.229Z,24.60
2019-03-26T19:17:58.556Z,29.45
2019-03-26T19:20:25.873Z,26.00
2019-03-26T19:22:53.105Z,29.70
2019-03-26T19:25:20.415Z,27.32
2019-03-26T19:27:47.738Z,28.17
2019-03-26T19:30:15.103Z,28.23
2019-03-26T19:32:42.323Z,29.30
2019-03-26T19:35:09.621Z,32.67
2019-03-26T19:37:36.947Z,24.85
2019-03-26T19:40:04.480Z,30.50
2019-03-26T19:42:31.803Z,31.07
2019-03-26T19:44:59.032Z,32.55
2019-03-26T19:47:26.363Z,32.00
2019-03-26T19:49:53.678Z,30.68
2019-03-26T19:52:20.902Z,33.33
2019-03-26T19:54:48.040Z,28.23
2019-03-26T19:57:17.121Z,26.40
2019-03-26T19:59:44.319Z,26.75
2019-03-26T20:02:11.646Z,29.30
2019-03-26T20:04:38.874Z,17.65
2019-03-26T20:07:06.192Z,24.98
2019-03-26T20:09:33.419Z,22.82
2019-03-26T20:12:00.630Z,18.27
2019-03-26T20:17:23.678Z,14.65
2019-03-26T20:19:53.504Z,16.77
2019-03-26T20:22:20.840Z,24.50
2019-03-26T20:24:48.853Z,20.88
2019-03-26T20:27:16.192Z,20.40
2019-03-26T20:29:43.504Z,19.30
2019-03-26T20:32:10.721Z,23.85
2019-03-26T20:34:38.054Z,15.18
2019-03-26T20:37:05.366Z,22.10
2019-03-26T20:39:32.699Z,21.02
2019-03-26T20:42:02.447Z,17.95
2019-03-26T20:44:30.230Z,23.23
2019-03-26T20:46:57.530Z,18.02
2019-03-26T20:49:26.887Z,26.20
2019-03-26T20:51:54.179Z,23.95
2019-03-26T20:54:21.441Z,16.65
2019-03-26T20:56:48.750Z,20.48
2019-03-26T20:59:16.469Z,21.23
2019-03-26T21:01:45.564Z,16.77
2019-03-26T21:04:12.810Z,21.05
2019-03-26T21:06:40.026Z,14.90
2019-03-26T21:09:07.910Z,19.52
2019-03-26T21:11:35.115Z,17.17
2019-03-26T21:14:04.603Z,13.13
2019-03-26T21:16:31.823Z,23.25
2019-03-26T21:19:00.217Z,18.32
2019-03-26T21:21:27.551Z,19.25
2019-03-26T21:23:54.882Z,16.02
2019-03-26T21:26:22.187Z,15.58
2019-03-26T21:28:49.792Z,17.23
2019-03-26T21:31:17.000Z,12.68
2019-03-26T21:33:44.323Z,20.23
2019-03-26T21:36:11.692Z,14.18
2019-03-26T21:38:38.995Z,10.30
2019-03-26T21:41:06.288Z,14.00
2019-03-26T21:43:33.622Z,11.28
2019-03-26T21:46:00.922Z,17.70
2019-03-26T21:48:28.266Z,15.65
2019-03-26T21:50:55.623Z,14.60
2019-03-26T21:53:22.846Z,13.35
2019-03-26T21:55:50.182Z,16.80
2019-03-26T21:58:17.499Z,17.52
2019-03-26T22:00:44.852Z,18.12
2019-03-26T22:03:12.152Z,34.33
2019-03-26T22:05:39.488Z,21.30
2019-03-26T22:08:06.796Z,19.42
2019-03-26T22:10:34.459Z,18.82
2019-03-26T22:13:01.789Z,19.30
2019-03-26T22:15:29.123Z,13.38
2019-03-26T22:17:56.350Z,16.00
2019-03-26T22:20:23.699Z,23.98
2019-03-26T22:22:51.024Z,21.68
2019-03-26T22:25:18.340Z,16.23
2019-03-26T22:27:45.662Z,23.80
2019-03-26T22:30:13.591Z,20.90
2019-03-26T22:32:40.912Z,30.55
2019-03-26T22:35:09.263Z,22.58
2019-03-26T22:37:36.609Z,28.67
2019-03-26T22:40:04.847Z,25.05
2019-03-26T22:42:32.152Z,23.12
2019-03-26T22:44:59.500Z,24.07
2019-03-26T22:47:26.803Z,26.00
2019-03-26T22:49:57.206Z,30.35
2019-03-26T22:52:23.330Z,28.95
2019-03-26T22:54:50.679Z,25.75
2019-03-26T22:57:18.002Z,29.80
2019-03-26T22:59:45.233Z,30.55
2019-03-26T23:02:12.560Z,26.80
2019-03-26T23:04:39.897Z,31.15
2019-03-26T23:07:07.230Z,29.23
2019-03-26T23:09:34.538Z,28.00
2019-03-26T23:12:02.806Z,30.35
2019-03-26T23:14:30.111Z,31.75
2019-03-26T23:16:57.437Z,32.45
2019-03-26T23:19:24.743Z,31.07
2019-03-26T23:21:53.543Z,31.97
2019-03-26T23:24:20.777Z,27.37
2019-03-26T23:26:47.992Z,27.87
2019-03-26T23:29:15.342Z,29.10
2019-03-26T23:31:42.664Z,26.70
2019-03-26T23:34:09.914Z,29.70
2019-03-26T23:36:37.222Z,33.15
2019-03-26T23:39:05.644Z,27.50
2019-03-26T23:41:32.979Z,26.55
2019-03-26T23:44:00.303Z,26.37
2019-03-26T23:46:27.636Z,28.62
2019-03-26T23:48:54.845Z,30.25
2019-03-26T23:51:22.080Z,27.55
2019-03-26T23:53:49.401Z,32.58
2019-03-26T23:56:16.743Z,32.23
2019-03-26T23:58:43.957Z,33.67
